Terminal Aerodrome Forecast
Issued by NWS

Home | Current Version | Previous Version | Text Only | Print | Product List | Glossary On
Versions: 1 2 3 4 5 6 7 8 9 10 11 12 13 14 15 16 17 18
308
FTUS45 KTFX 071906 AAA
TAFBZN
TAF AMD
KBZN 071906Z 0719/0818 VRB06KT P6SM SCT035 BKN060
     FM080000 VRB06KT P6SM SCT080=

USA.gov is the U.S. government's official web portal to all federal, state and local government web resources and services.